Milan Linate, Italy

2:08 AM CEST on August 30, 2014 (GMT +0200)
Peschiera Borromeo - Bellaria (Mi) | Change Station
CLOSE
Current Station
Personal Weather Station
Location: Peschiera Borromeo,
Elevation: 318 ft
Nearby Weather Stations
Active Advisory: Thunderstorms

Elev 318 ft 45.42 °N, 9.31 °E | Updated 7 minutes ago

Mostly Cloudy
Mostly Cloudy
71.4 °F
Feels Like 71 °F
N
0.0
Wind Variable Wind from North
Gusts 1.0 mph

Today
High -- | Low -- °F
--% Chance of Precip.
Yesterday
High -- | Low -- °F
Precip. -- in
6:41 AM 8:04 PM
Waxing Crescent, 17% visible
Pressure 30.01 in
Visibility 6.2 miles
Clouds Mostly Cloudy 6000 ft
Heat Index 71 °F
Dew Point 66 °F
Humidity 83%
Rainfall 0.00 in
Snow Depth Not available.
UV 0 out of 12
Pollen Not available.
Air Quality Not available.
Flu Activity Not available.
METAR LIML 292350Z VRB02KT 9999 BKN060 22/19 Q1016 NOSIG

More Conditions Fewer Conditions

Pressure 30.01 in
Visibility 6.2 miles
Clouds Mostly Cloudy 6000 ft
Heat Index 71 °F
Dew Point 66 °F
Humidity 83%
Rainfall 0.00 in
Snow Depth Not available.
UV 0 out of 12
Pollen Not available.
Air Quality Not available.
Flu Activity Not available.
METAR LIML 292350Z VRB02KT 9999 BKN060 22/19 Q1016 NOSIG

More Conditions Fewer Conditions

10-Day Weather Forecast

Almanac

Astronomy

Aug. 30, 2014 Rise Set
Actual Time 6:41 AM CEST 8:04 PM CEST
Civil Twilight 6:10 AM CEST 8:35 PM CEST
Nautical Twilight 5:33 AM CEST 9:12 PM CEST
Astronomical Twilight 4:53 AM CEST 9:51 PM CEST
Moon 11:28 AM CEST 10:12 PM CEST
Length of Visible Light 14h 24m
Length of Day
13h 23m
Tomorrow will be 3m 3s shorter.
Waxing Crescent, 17% of the Moon is Illuminated
Aug 29
Waxing Crescent
Sep 2
First Quarter
Sep 8
Full
Sep 15
Last Quarter
Sep 24
New

Yesterday's Extremes

Country Highs Country Lows

Community

WunderPhotos

Upload Photos

1,748,379 photos uploaded!

Nearby

Snow Depth

Not available.

Earthquake Activity

City Distance Mag. Time & Date
No recent earthquake activity has been reported nearby.
Minimum magnitude displayed is 2.5.

Coastal Water Temperatures

Place Temperature
No Stations Reporting

Nearby Weather Stations